createdAt,value
2017-10-19T00:01:54.766Z,41.33
2017-10-19T00:03:57.440Z,41.93
2017-10-19T00:06:00.090Z,42.73
2017-10-19T00:08:02.779Z,35.77
2017-10-19T00:10:05.448Z,38.83
2017-10-19T00:12:08.113Z,37.73
2017-10-19T00:14:11.562Z,29.93
2017-10-19T00:16:14.225Z,41.57
2017-10-19T00:18:16.985Z,41.50
2017-10-19T00:20:19.666Z,38.47
2017-10-19T00:22:22.340Z,38.00
2017-10-19T00:24:25.008Z,32.97
2017-10-19T00:26:27.703Z,29.90
2017-10-19T00:28:30.479Z,36.90
2017-10-19T00:30:33.146Z,32.13
2017-10-19T00:32:35.818Z,32.13
2017-10-19T00:34:38.474Z,35.93
2017-10-19T00:36:41.914Z,45.00
2017-10-19T00:38:44.604Z,32.73
2017-10-19T00:40:47.314Z,35.90
2017-10-19T00:42:50.849Z,43.37
2017-10-19T00:44:53.537Z,34.50
2017-10-19T00:46:56.195Z,40.63
2017-10-19T00:48:58.867Z,40.23
2017-10-19T00:51:01.566Z,30.40
2017-10-19T00:53:04.261Z,40.83
2017-10-19T00:55:06.933Z,36.77
2017-10-19T00:57:09.630Z,35.83
2017-10-19T00:59:12.350Z,41.50
2017-10-19T01:01:15.215Z,38.93
2017-10-19T01:03:18.733Z,42.63
2017-10-19T01:05:21.424Z,36.30
2017-10-19T01:07:24.118Z,33.50
2017-10-19T01:09:26.781Z,38.80
2017-10-19T01:11:29.464Z,41.93
2017-10-19T01:13:32.165Z,38.60
2017-10-19T01:15:34.837Z,39.40
2017-10-19T01:17:37.515Z,40.10
2017-10-19T01:19:40.266Z,46.03
2017-10-19T01:21:42.955Z,33.50
2017-10-19T01:23:45.697Z,35.63
2017-10-19T01:25:48.475Z,37.50
2017-10-19T01:27:51.250Z,45.80
2017-10-19T01:29:53.949Z,34.13
2017-10-19T01:31:56.701Z,33.17
2017-10-19T01:33:59.411Z,36.53
2017-10-19T01:36:02.112Z,41.40
2017-10-19T01:38:04.813Z,45.77
2017-10-19T01:40:08.309Z,37.50
2017-10-19T01:42:11.957Z,33.30
2017-10-19T01:44:14.745Z,50.23
2017-10-19T01:46:17.445Z,45.87
2017-10-19T01:48:20.981Z,35.40
2017-10-19T01:50:23.762Z,50.27
2017-10-19T01:52:26.477Z,43.50
2017-10-19T01:54:29.217Z,43.20
2017-10-19T01:56:31.928Z,45.77
2017-10-19T01:58:34.589Z,46.10
2017-10-19T02:00:37.387Z,42.87
2017-10-19T02:02:40.125Z,47.50
2017-10-19T02:04:42.837Z,48.43
2017-10-19T02:06:45.532Z,44.10
2017-10-19T02:08:49.744Z,40.50
2017-10-19T02:10:52.425Z,50.90
2017-10-19T02:12:55.852Z,44.17
2017-10-19T02:14:58.566Z,37.17
2017-10-19T02:17:01.247Z,38.57
2017-10-19T02:19:03.932Z,47.27
2017-10-19T02:21:08.197Z,49.40
2017-10-19T02:23:11.078Z,44.30
2017-10-19T02:25:13.808Z,43.17
2017-10-19T02:27:16.457Z,48.83
2017-10-19T02:29:19.155Z,49.50
2017-10-19T02:31:21.845Z,44.40
2017-10-19T02:33:26.020Z,44.80
2017-10-19T02:35:28.690Z,45.73
2017-10-19T02:37:31.376Z,51.93
2017-10-19T02:39:34.040Z,43.27
2017-10-19T02:41:36.700Z,45.67
2017-10-19T02:43:39.385Z,44.10
2017-10-19T02:45:42.057Z,45.33
2017-10-19T02:47:44.719Z,51.80
2017-10-19T02:49:47.400Z,51.00
2017-10-19T02:51:50.064Z,46.53
2017-10-19T02:53:53.583Z,46.63
2017-10-19T02:55:56.359Z,52.40
2017-10-19T02:57:59.083Z,48.70
2017-10-19T03:00:01.817Z,50.10
2017-10-19T03:02:04.511Z,53.30
2017-10-19T03:04:07.215Z,46.57
2017-10-19T03:06:09.934Z,44.00
2017-10-19T03:08:12.595Z,51.57
2017-10-19T03:10:19.208Z,39.53
2017-10-19T03:12:22.050Z,45.43
2017-10-19T03:14:26.616Z,50.17
2017-10-19T03:16:29.297Z,51.63
2017-10-19T03:18:32.069Z,47.80
2017-10-19T03:20:34.738Z,45.50
2017-10-19T03:22:37.531Z,46.50
2017-10-19T03:24:40.238Z,44.57
2017-10-19T03:26:42.897Z,55.67
2017-10-19T03:28:45.582Z,48.30
2017-10-19T03:30:49.848Z,41.60
2017-10-19T03:32:52.631Z,45.83
2017-10-19T03:34:55.307Z,44.27
2017-10-19T03:36:58.125Z,44.93
2017-10-19T03:39:00.795Z,47.40
2017-10-19T03:41:03.538Z,48.43
2017-10-19T03:43:06.323Z,46.50
2017-10-19T03:45:09.011Z,61.93
2017-10-19T03:47:11.671Z,53.30
2017-10-19T03:49:14.399Z,51.80
2017-10-19T03:51:17.075Z,43.40
2017-10-19T03:53:19.750Z,42.20
2017-10-19T03:55:22.444Z,42.17
2017-10-19T03:57:26.017Z,42.67
2017-10-19T03:59:28.747Z,46.40
2017-10-19T04:01:31.628Z,48.07
2017-10-19T04:03:34.323Z,42.03
2017-10-19T04:05:36.993Z,42.83
2017-10-19T04:07:39.701Z,44.70
2017-10-19T04:09:42.359Z,40.60
2017-10-19T04:11:45.036Z,41.33
2017-10-19T04:13:47.732Z,56.87
2017-10-19T04:15:50.409Z,60.90
2017-10-19T04:17:53.082Z,51.00
2017-10-19T04:19:55.767Z,43.57
2017-10-19T04:21:58.492Z,51.73
2017-10-19T04:24:01.167Z,44.43
2017-10-19T04:26:03.859Z,43.53
2017-10-19T04:28:06.526Z,51.73
2017-10-19T04:30:09.233Z,47.77
2017-10-19T04:32:11.913Z,48.60
2017-10-19T04:34:14.577Z,51.43
2017-10-19T04:36:17.246Z,45.77
2017-10-19T04:38:20.682Z,43.07
2017-10-19T04:40:24.096Z,47.40
2017-10-19T04:42:26.768Z,40.30
2017-10-19T04:44:30.178Z,43.50
2017-10-19T04:46:32.887Z,39.33
2017-10-19T04:48:35.556Z,40.97
2017-10-19T04:50:38.269Z,41.80
2017-10-19T04:52:40.942Z,45.27
2017-10-19T04:54:43.585Z,46.70
2017-10-19T04:56:46.360Z,41.70
2017-10-19T04:58:49.038Z,56.57
2017-10-19T05:00:51.733Z,59.30
2017-10-19T05:02:54.523Z,58.30
2017-10-19T05:04:57.516Z,50.77
2017-10-19T05:07:00.942Z,56.00
2017-10-19T05:09:03.660Z,47.30
2017-10-19T05:11:06.371Z,55.13
2017-10-19T05:13:10.104Z,58.20
2017-10-19T05:15:12.883Z,54.83
2017-10-19T05:17:15.558Z,60.93
2017-10-19T05:19:18.273Z,56.30
2017-10-19T05:21:21.000Z,50.53
2017-10-19T05:23:24.840Z,53.67
2017-10-19T05:25:27.530Z,45.47
2017-10-19T05:27:30.207Z,46.40
2017-10-19T05:29:32.877Z,47.67
2017-10-19T05:31:35.584Z,50.90
2017-10-19T05:33:39.040Z,42.37
2017-10-19T05:35:41.700Z,50.80
2017-10-19T05:37:44.469Z,46.40
2017-10-19T05:39:47.181Z,61.37
2017-10-19T05:41:50.026Z,52.30
2017-10-19T05:43:52.686Z,56.30
2017-10-19T05:45:55.361Z,62.03
2017-10-19T05:47:58.065Z,47.90
2017-10-19T05:50:00.777Z,62.80
2017-10-19T05:52:03.515Z,52.47
2017-10-19T05:54:06.200Z,49.40
2017-10-19T05:56:08.886Z,61.90
2017-10-19T05:58:11.567Z,68.17
2017-10-19T06:00:14.241Z,57.43
2017-10-19T06:02:16.955Z,62.10
2017-10-19T06:04:19.622Z,58.73
2017-10-19T06:06:22.345Z,63.13
2017-10-19T06:08:25.036Z,73.93
2017-10-19T06:10:27.799Z,61.70
2017-10-19T06:12:30.494Z,63.63
2017-10-19T06:14:33.187Z,49.53
2017-10-19T06:16:35.846Z,52.80
2017-10-19T06:18:38.712Z,50.43
2017-10-19T06:20:41.420Z,47.43
2017-10-19T06:22:44.083Z,44.70
2017-10-19T06:24:46.755Z,57.07
2017-10-19T06:26:49.441Z,41.03
2017-10-19T06:28:52.112Z,42.37
2017-10-19T06:30:54.802Z,45.63
2017-10-19T06:32:57.463Z,39.70
2017-10-19T06:35:00.447Z,45.10
2017-10-19T06:37:03.228Z,37.23
2017-10-19T06:39:05.898Z,43.07
2017-10-19T06:41:08.598Z,39.83
2017-10-19T06:43:11.253Z,64.60
2017-10-19T06:45:13.920Z,41.17
2017-10-19T06:47:16.635Z,37.27
2017-10-19T06:49:20.800Z,31.30
2017-10-19T06:51:23.462Z,30.03
2017-10-19T06:53:26.153Z,29.57
2017-10-19T06:55:28.808Z,26.47
2017-10-19T06:57:31.457Z,23.90
2017-10-19T06:59:35.746Z,29.40
2017-10-19T07:01:38.412Z,27.70
2017-10-19T07:03:41.070Z,36.20
2017-10-19T07:05:43.768Z,30.00
2017-10-19T07:07:46.440Z,29.17
2017-10-19T07:09:49.099Z,28.77
2017-10-19T07:11:51.870Z,27.63
2017-10-19T07:13:54.649Z,28.73
2017-10-19T07:15:57.379Z,25.67
2017-10-19T07:18:00.053Z,29.37
2017-10-19T07:20:02.920Z,30.63
2017-10-19T07:22:05.565Z,26.00
2017-10-19T07:24:08.230Z,24.23
2017-10-19T07:26:10.903Z,25.37
2017-10-19T07:28:13.616Z,26.53
2017-10-19T07:30:16.340Z,25.40
2017-10-19T07:32:19.865Z,26.47
2017-10-19T07:34:22.529Z,25.10
2017-10-19T07:36:25.223Z,20.40
2017-10-19T07:38:27.899Z,41.43
2017-10-19T07:40:30.593Z,24.63
2017-10-19T07:42:33.316Z,25.30
2017-10-19T07:44:36.803Z,35.00
2017-10-19T07:46:40.217Z,26.30
2017-10-19T07:48:42.915Z,29.00
2017-10-19T07:50:45.599Z,23.40
2017-10-19T07:52:48.367Z,21.27
2017-10-19T07:54:51.049Z,22.37
2017-10-19T07:56:53.728Z,25.77
2017-10-19T07:58:56.404Z,26.43
2017-10-19T08:00:59.140Z,21.97
2017-10-19T08:03:02.567Z,27.17
2017-10-19T08:05:05.272Z,26.07
2017-10-19T08:07:07.928Z,27.13
2017-10-19T08:09:10.588Z,22.10
2017-10-19T08:11:13.283Z,26.20
2017-10-19T08:13:15.971Z,29.30
2017-10-19T08:15:18.721Z,27.90
2017-10-19T08:17:21.426Z,24.80
2017-10-19T08:19:24.086Z,24.77
2017-10-19T08:21:26.751Z,24.63
2017-10-19T08:23:29.556Z,23.17
2017-10-19T08:25:32.224Z,23.90
2017-10-19T08:27:34.882Z,22.70
2017-10-19T08:29:37.819Z,22.43
2017-10-19T08:31:40.496Z,26.67
2017-10-19T08:33:43.168Z,26.43
2017-10-19T08:35:45.926Z,22.63
2017-10-19T08:37:48.786Z,28.47
2017-10-19T08:39:51.468Z,26.90
2017-10-19T08:41:54.152Z,21.53
2017-10-19T08:43:56.809Z,25.77
2017-10-19T08:45:59.475Z,26.93
2017-10-19T08:48:02.182Z,26.60
2017-10-19T08:50:04.837Z,26.17
2017-10-19T08:52:07.523Z,22.13
2017-10-19T08:54:10.217Z,21.83
2017-10-19T08:56:12.887Z,19.90
2017-10-19T08:58:15.636Z,27.00
2017-10-19T09:00:18.324Z,24.70
2017-10-19T09:02:20.988Z,23.47
2017-10-19T09:04:23.670Z,23.20
2017-10-19T09:06:26.334Z,24.50
2017-10-19T09:08:29.001Z,29.23
2017-10-19T09:10:31.704Z,26.47
2017-10-19T09:12:34.354Z,30.10
2017-10-19T09:14:37.034Z,24.33
2017-10-19T09:16:39.739Z,31.60
2017-10-19T09:18:42.502Z,23.60
2017-10-19T09:20:45.281Z,25.70
2017-10-19T09:22:48.058Z,25.90
2017-10-19T09:24:50.750Z,31.23
2017-10-19T09:26:53.415Z,28.40
2017-10-19T09:28:56.094Z,25.57
2017-10-19T09:30:58.754Z,24.43
2017-10-19T09:33:01.406Z,27.00
2017-10-19T09:35:04.933Z,31.23
2017-10-19T09:37:07.613Z,25.10
2017-10-19T09:39:10.283Z,25.63
2017-10-19T09:41:12.957Z,26.30
2017-10-19T09:43:15.624Z,26.87
2017-10-19T09:45:18.311Z,26.93
2017-10-19T09:47:21.010Z,25.70
2017-10-19T09:49:23.663Z,22.97
2017-10-19T09:51:26.319Z,23.47
2017-10-19T09:53:29.013Z,28.50
2017-10-19T09:55:31.683Z,21.57
2017-10-19T09:57:34.343Z,31.20
2017-10-19T09:59:37.792Z,28.53
2017-10-19T10:01:40.460Z,24.73
2017-10-19T10:03:43.219Z,27.73
2017-10-19T10:05:45.894Z,31.40
2017-10-19T10:07:48.559Z,31.20
2017-10-19T10:09:51.371Z,26.67
2017-10-19T10:11:54.040Z,31.73
2017-10-19T10:13:56.717Z,26.27
2017-10-19T10:15:59.392Z,28.77
2017-10-19T10:18:02.062Z,26.93
2017-10-19T10:20:04.830Z,28.50
2017-10-19T10:22:07.508Z,31.77
2017-10-19T10:24:10.187Z,27.73
2017-10-19T10:26:12.876Z,31.27
2017-10-19T10:28:15.641Z,25.80
2017-10-19T10:30:18.319Z,25.07
2017-10-19T10:32:21.001Z,24.90
2017-10-19T10:34:23.662Z,32.47
2017-10-19T10:36:26.323Z,31.60
2017-10-19T10:38:29.843Z,29.97
2017-10-19T10:40:32.514Z,28.30
2017-10-19T10:42:35.179Z,26.67
2017-10-19T10:44:37.879Z,32.47
2017-10-19T10:46:40.532Z,31.93
2017-10-19T10:48:43.202Z,34.33
2017-10-19T10:50:45.997Z,30.40
2017-10-19T10:52:48.648Z,29.23
2017-10-19T10:54:52.151Z,32.37
2017-10-19T10:56:54.874Z,32.93
2017-10-19T10:58:57.568Z,34.73
2017-10-19T11:01:00.301Z,33.40
2017-10-19T11:03:03.010Z,35.83
2017-10-19T11:05:05.859Z,37.13
2017-10-19T11:07:08.523Z,29.63
2017-10-19T11:09:11.226Z,33.00
2017-10-19T11:11:14.023Z,32.57
2017-10-19T11:13:16.763Z,28.13
2017-10-19T11:15:19.466Z,35.17
2017-10-19T11:17:22.148Z,34.70
2017-10-19T11:19:25.031Z,31.40
2017-10-19T11:21:27.705Z,40.83
2017-10-19T11:23:30.401Z,40.70
2017-10-19T11:25:33.255Z,30.67
2017-10-19T11:27:36.010Z,33.50
2017-10-19T11:29:38.817Z,27.90
2017-10-19T11:31:41.565Z,35.33
2017-10-19T11:33:44.247Z,30.80
2017-10-19T11:35:46.905Z,32.93
2017-10-19T11:37:50.313Z,31.43
2017-10-19T11:39:52.991Z,26.50
2017-10-19T11:41:55.648Z,26.07
2017-10-19T11:43:59.090Z,30.03
2017-10-19T11:46:01.801Z,31.13
2017-10-19T11:48:04.602Z,29.53
2017-10-19T11:50:08.018Z,26.87
2017-10-19T11:52:10.706Z,30.90
2017-10-19T11:54:13.379Z,23.00
2017-10-19T11:56:16.038Z,33.33
2017-10-19T11:58:18.738Z,29.80
2017-10-19T12:00:21.601Z,32.03
2017-10-19T12:02:24.264Z,27.83
2017-10-19T12:04:26.954Z,33.43
2017-10-19T12:06:29.627Z,29.33
2017-10-19T12:08:32.280Z,32.43
2017-10-19T12:10:35.718Z,37.47
2017-10-19T12:12:38.373Z,36.37
2017-10-19T12:14:41.049Z,30.43
2017-10-19T12:16:43.746Z,36.57
2017-10-19T12:18:46.410Z,29.40
2017-10-19T12:20:49.066Z,40.23
2017-10-19T12:22:51.756Z,35.10
2017-10-19T12:24:54.412Z,41.37
2017-10-19T12:26:57.828Z,35.87
2017-10-19T12:29:00.519Z,38.83
2017-10-19T12:31:03.197Z,50.17
2017-10-19T12:33:05.883Z,50.87
2017-10-19T12:35:08.529Z,37.77
2017-10-19T12:37:11.185Z,43.57
2017-10-19T12:39:14.655Z,36.17
2017-10-19T12:41:17.335Z,39.57
2017-10-19T12:43:20.770Z,39.90
2017-10-19T12:45:23.459Z,49.03
2017-10-19T12:47:26.113Z,44.23
2017-10-19T12:49:28.897Z,44.97
2017-10-19T12:51:31.573Z,42.17
2017-10-19T12:53:34.232Z,49.27
2017-10-19T12:55:37.637Z,43.17
2017-10-19T12:57:40.345Z,42.37
2017-10-19T12:59:43.223Z,41.60
2017-10-19T13:01:45.915Z,47.70
2017-10-19T13:03:48.602Z,45.83
2017-10-19T13:05:51.278Z,45.40
2017-10-19T13:07:53.972Z,47.33
2017-10-19T13:09:57.404Z,47.20
2017-10-19T13:12:00.049Z,45.40
2017-10-19T13:14:03.486Z,47.23
2017-10-19T13:16:06.175Z,52.47
2017-10-19T13:18:08.839Z,52.20
2017-10-19T13:20:11.644Z,42.67
2017-10-19T13:22:14.303Z,45.80
2017-10-19T13:24:16.996Z,47.87
2017-10-19T13:26:19.731Z,45.90
2017-10-19T13:28:22.475Z,43.57
2017-10-19T13:30:25.151Z,45.93
2017-10-19T13:32:28.683Z,47.33
2017-10-19T13:34:31.363Z,46.23
2017-10-19T13:36:34.056Z,46.37
2017-10-19T13:38:36.740Z,41.43
2017-10-19T13:40:39.409Z,48.73
2017-10-19T13:42:42.099Z,50.13
2017-10-19T13:44:44.787Z,57.33
2017-10-19T13:46:47.449Z,46.03
2017-10-19T13:48:50.107Z,45.23
2017-10-19T13:50:52.871Z,48.40
2017-10-19T13:52:55.546Z,44.60
2017-10-19T13:54:58.200Z,40.47
2017-10-19T13:57:01.722Z,45.93
2017-10-19T13:59:04.384Z,45.90
2017-10-19T14:01:07.052Z,36.90
2017-10-19T14:03:09.725Z,48.57
2017-10-19T14:05:12.467Z,36.77
2017-10-19T14:07:15.198Z,36.93
2017-10-19T14:09:17.885Z,36.17
2017-10-19T14:11:20.617Z,35.67
2017-10-19T14:13:23.277Z,40.77
2017-10-19T14:15:26.050Z,32.43
2017-10-19T14:17:28.699Z,38.93
2017-10-19T14:19:31.352Z,36.40
2017-10-19T14:21:34.057Z,58.90
2017-10-19T14:23:36.727Z,34.83
2017-10-19T14:25:39.399Z,37.87
2017-10-19T14:27:42.086Z,33.03
2017-10-19T14:29:44.775Z,30.47
2017-10-19T14:31:47.436Z,28.73
2017-10-19T14:33:50.126Z,34.70
2017-10-19T14:36:00.641Z,66.27
2017-10-19T14:38:03.328Z,34.13
2017-10-19T14:40:06.011Z,32.00
2017-10-19T14:42:08.676Z,29.43
2017-10-19T14:44:11.367Z,29.53
2017-10-19T14:46:14.043Z,28.40
2017-10-19T14:48:16.729Z,26.67
2017-10-19T14:50:19.386Z,29.70
2017-10-19T14:52:22.067Z,33.70
2017-10-19T14:54:24.771Z,30.90
2017-10-19T14:56:27.441Z,25.00
2017-10-19T14:58:30.198Z,29.33
2017-10-19T15:00:32.926Z,37.30
2017-10-19T15:02:35.573Z,25.70
2017-10-19T15:04:38.303Z,25.63
2017-10-19T15:06:41.745Z,28.13
2017-10-19T15:08:45.162Z,23.93
2017-10-19T15:10:47.893Z,28.23
2017-10-19T15:12:50.573Z,22.27
2017-10-19T15:14:53.229Z,26.10
2017-10-19T15:16:55.971Z,21.80
2017-10-19T15:18:58.694Z,27.13
2017-10-19T15:21:01.356Z,30.03
2017-10-19T15:23:04.009Z,23.10
2017-10-19T15:25:06.700Z,26.90
2017-10-19T15:27:10.143Z,19.47
2017-10-19T15:29:12.813Z,20.70
2017-10-19T15:31:15.535Z,22.43
2017-10-19T15:33:18.198Z,23.90
2017-10-19T15:35:20.925Z,18.53
2017-10-19T15:37:23.890Z,28.60
2017-10-19T15:39:26.575Z,22.03
2017-10-19T15:41:29.265Z,18.93
2017-10-19T15:43:31.972Z,25.57
2017-10-19T15:45:35.822Z,20.73
2017-10-19T15:47:39.247Z,26.20
2017-10-19T15:49:41.952Z,23.47
2017-10-19T15:51:45.681Z,28.43
2017-10-19T15:53:49.097Z,20.73
2017-10-19T15:55:51.782Z,22.00
2017-10-19T15:57:54.443Z,21.23
2017-10-19T15:59:57.106Z,24.50
2017-10-19T16:02:00.567Z,23.47
2017-10-19T16:04:03.264Z,27.03
2017-10-19T16:06:05.941Z,19.27
2017-10-19T16:08:08.662Z,18.23
2017-10-19T16:10:11.342Z,17.37
2017-10-19T16:12:14.217Z,17.30
2017-10-19T16:14:16.924Z,21.23
2017-10-19T16:16:19.588Z,20.63
2017-10-19T16:18:22.264Z,19.17
2017-10-19T16:20:24.953Z,34.17
2017-10-19T16:22:28.522Z,24.87
2017-10-19T16:24:31.188Z,25.23
2017-10-19T16:26:33.881Z,29.33
2017-10-19T16:28:36.549Z,25.97
2017-10-19T16:30:39.370Z,26.63
2017-10-19T16:32:42.816Z,25.77
2017-10-19T16:34:45.480Z,25.30
2017-10-19T16:36:48.204Z,24.57
2017-10-19T16:38:50.937Z,27.63
2017-10-19T16:40:53.582Z,26.33
2017-10-19T16:42:56.274Z,26.00
2017-10-19T16:44:59.821Z,21.80
2017-10-19T16:47:02.563Z,27.20
2017-10-19T16:49:05.236Z,20.77
2017-10-19T16:51:07.909Z,21.10
2017-10-19T16:53:11.348Z,25.63
2017-10-19T16:55:14.062Z,23.23
2017-10-19T16:57:16.714Z,29.00
2017-10-19T16:59:19.553Z,33.40
2017-10-19T17:01:22.373Z,28.83
2017-10-19T17:03:25.045Z,29.43
2017-10-19T17:05:27.749Z,24.77
2017-10-19T17:07:30.455Z,25.97
2017-10-19T17:09:33.119Z,29.00
2017-10-19T17:11:36.562Z,24.10
2017-10-19T17:13:39.257Z,31.97
2017-10-19T17:15:42.278Z,30.67
2017-10-19T17:17:45.714Z,23.00
2017-10-19T17:19:48.739Z,30.53
2017-10-19T17:21:52.166Z,26.77
2017-10-19T17:23:55.094Z,31.70
2017-10-19T17:25:57.839Z,27.03
2017-10-19T17:28:00.605Z,34.40
2017-10-19T17:30:03.318Z,27.00
2017-10-19T17:32:05.960Z,27.37
2017-10-19T17:34:08.634Z,24.23
2017-10-19T17:36:11.839Z,28.93
2017-10-19T17:38:14.929Z,23.57
2017-10-19T17:40:17.841Z,24.03
2017-10-19T17:42:21.389Z,28.57
2017-10-19T17:44:24.057Z,30.80
2017-10-19T17:46:26.739Z,24.77
2017-10-19T17:48:29.420Z,30.07
2017-10-19T17:50:32.184Z,25.13
2017-10-19T17:52:34.885Z,30.70
2017-10-19T17:54:37.705Z,28.50
2017-10-19T17:56:41.150Z,24.87
2017-10-19T17:58:43.927Z,30.97
2017-10-19T18:00:46.711Z,26.77
2017-10-19T18:02:49.371Z,25.00
2017-10-19T18:04:52.068Z,29.27
2017-10-19T18:06:55.178Z,23.43
2017-10-19T18:08:57.915Z,22.70
2017-10-19T18:11:01.626Z,30.03
2017-10-19T18:13:04.584Z,27.90
2017-10-19T18:15:07.416Z,30.47
2017-10-19T18:17:10.145Z,24.10
2017-10-19T18:19:12.845Z,29.40
2017-10-19T18:21:15.528Z,22.00
2017-10-19T18:23:18.188Z,33.93
2017-10-19T18:25:20.899Z,21.07
2017-10-19T18:27:23.546Z,25.10
2017-10-19T18:29:26.219Z,24.63
2017-10-19T18:31:28.902Z,21.80
2017-10-19T18:33:31.672Z,17.33
2017-10-19T18:35:34.341Z,33.73
2017-10-19T18:37:37.056Z,24.67
2017-10-19T18:39:39.713Z,26.87
2017-10-19T18:41:42.483Z,22.83
2017-10-19T18:43:45.203Z,21.83
2017-10-19T18:45:49.060Z,27.10
2017-10-19T18:47:51.824Z,30.37
2017-10-19T18:49:55.755Z,25.87
2017-10-19T18:51:58.493Z,23.93
2017-10-19T18:54:02.128Z,22.83
2017-10-19T18:56:05.016Z,32.07
2017-10-19T18:58:07.803Z,25.97
2017-10-19T19:00:10.663Z,27.13
2017-10-19T19:02:13.641Z,37.50
2017-10-19T19:04:16.301Z,34.13
2017-10-19T19:06:19.094Z,28.03
2017-10-19T19:08:21.992Z,22.73
2017-10-19T19:10:24.688Z,23.00
2017-10-19T19:12:27.383Z,20.77
2017-10-19T19:14:30.137Z,32.73
2017-10-19T19:16:33.037Z,25.10
2017-10-19T19:18:36.576Z,31.10
2017-10-19T19:20:39.409Z,29.27
2017-10-19T19:22:42.236Z,21.60
2017-10-19T19:24:45.432Z,23.23
2017-10-19T19:26:48.206Z,22.30
2017-10-19T19:28:51.022Z,23.53
2017-10-19T19:30:53.772Z,24.50
2017-10-19T19:32:56.793Z,32.50
2017-10-19T19:34:59.526Z,26.60
2017-10-19T19:37:02.339Z,24.83
2017-10-19T19:39:05.250Z,32.27
2017-10-19T19:41:08.808Z,23.43
2017-10-19T19:43:11.675Z,27.13
2017-10-19T19:45:14.553Z,28.10
2017-10-19T19:47:17.536Z,24.03
2017-10-19T19:49:20.211Z,24.63
2017-10-19T19:51:23.091Z,28.83
2017-10-19T19:53:25.898Z,34.53
2017-10-19T19:55:28.857Z,27.37
2017-10-19T19:57:31.626Z,24.20
2017-10-19T19:59:34.454Z,23.73
2017-10-19T20:01:37.191Z,23.47
2017-10-19T20:03:39.981Z,23.87
2017-10-19T20:05:42.859Z,25.90
2017-10-19T20:07:45.628Z,24.53
2017-10-19T20:09:48.268Z,21.13
2017-10-19T20:11:51.901Z,29.13
2017-10-19T20:13:54.578Z,24.67
2017-10-19T20:15:57.248Z,27.73
2017-10-19T20:17:59.948Z,24.37
2017-10-19T20:20:03.041Z,23.60
2017-10-19T20:22:05.730Z,37.57
2017-10-19T20:24:08.444Z,27.07
2017-10-19T20:26:12.039Z,20.93
2017-10-19T20:28:15.567Z,28.80
2017-10-19T20:30:18.235Z,27.97
2017-10-19T20:32:20.885Z,26.17
2017-10-19T20:34:24.334Z,24.40
2017-10-19T20:36:27.015Z,31.40
2017-10-19T20:38:29.675Z,26.50
2017-10-19T20:40:32.441Z,25.60
2017-10-19T20:42:35.322Z,25.33
2017-10-19T20:44:38.076Z,25.80
2017-10-19T20:46:41.531Z,24.90
2017-10-19T20:48:44.192Z,20.37
2017-10-19T20:50:46.891Z,19.60
2017-10-19T20:52:49.555Z,24.13
2017-10-19T20:54:52.301Z,27.07
2017-10-19T20:56:55.105Z,22.43
2017-10-19T20:58:57.767Z,21.27
2017-10-19T21:01:00.445Z,25.53
2017-10-19T21:03:03.191Z,29.30
2017-10-19T21:05:05.985Z,28.73
2017-10-19T21:07:08.632Z,24.23
2017-10-19T21:09:12.064Z,25.47
2017-10-19T21:11:14.708Z,29.37
2017-10-19T21:13:18.173Z,35.27
2017-10-19T21:15:21.603Z,29.83
2017-10-19T21:17:24.269Z,30.40
2017-10-19T21:19:27.775Z,20.87
2017-10-19T21:21:30.575Z,32.53
2017-10-19T21:23:33.271Z,25.03
2017-10-19T21:25:35.986Z,24.90
2017-10-19T21:27:39.439Z,31.30
2017-10-19T21:29:42.086Z,26.67
2017-10-19T21:31:44.762Z,19.27
2017-10-19T21:33:47.413Z,29.33
2017-10-19T21:35:50.825Z,17.93
2017-10-19T21:37:53.502Z,19.37
2017-10-19T21:39:56.398Z,31.37
2017-10-19T21:41:59.071Z,28.00
2017-10-19T21:44:01.763Z,25.10
2017-10-19T21:46:04.434Z,32.37
2017-10-19T21:48:07.105Z,31.50
2017-10-19T21:50:09.787Z,21.67
2017-10-19T21:52:12.441Z,24.83
2017-10-19T21:54:15.139Z,18.73
2017-10-19T21:56:17.845Z,25.70
2017-10-19T21:58:20.496Z,23.73
2017-10-19T22:00:23.156Z,31.50
2017-10-19T22:02:29.791Z,25.97
2017-10-19T22:04:33.200Z,22.57
2017-10-19T22:06:36.724Z,20.00
2017-10-19T22:08:39.416Z,25.77
2017-10-19T22:10:42.053Z,22.90
2017-10-19T22:12:44.708Z,28.77
2017-10-19T22:14:48.188Z,21.73
2017-10-19T22:16:50.852Z,25.10
2017-10-19T22:18:53.693Z,25.53
2017-10-19T22:20:56.351Z,23.93
2017-10-19T22:22:59.780Z,22.30
2017-10-19T22:25:02.456Z,30.90
2017-10-19T22:27:05.115Z,23.63
2017-10-19T22:29:07.775Z,27.87
2017-10-19T22:31:10.449Z,23.60
2017-10-19T22:33:13.881Z,31.27
2017-10-19T22:35:16.548Z,31.83
2017-10-19T22:37:19.232Z,34.37
2017-10-19T22:39:21.885Z,28.73
2017-10-19T22:41:24.549Z,33.33
2017-10-19T22:43:27.241Z,26.70
2017-10-19T22:45:29.889Z,23.77
2017-10-19T22:47:33.310Z,31.70
2017-10-19T22:49:36.088Z,28.43
2017-10-19T22:51:38.763Z,26.17
2017-10-19T22:53:41.428Z,18.57
2017-10-19T22:55:44.138Z,21.53
2017-10-19T22:57:46.776Z,28.63
2017-10-19T22:59:49.425Z,21.90
2017-10-19T23:01:52.870Z,25.53
2017-10-19T23:03:55.525Z,16.43
2017-10-19T23:05:58.183Z,17.30
2017-10-19T23:08:01.640Z,17.57
2017-10-19T23:10:04.481Z,23.40
2017-10-19T23:12:07.176Z,15.73
2017-10-19T23:14:09.943Z,17.93
2017-10-19T23:16:12.755Z,15.63
2017-10-19T23:18:15.393Z,19.03
2017-10-19T23:20:18.076Z,18.47
2017-10-19T23:22:20.848Z,16.10
2017-10-19T23:24:23.513Z,18.33
2017-10-19T23:26:26.187Z,20.30
2017-10-19T23:28:28.852Z,17.50
2017-10-19T23:30:32.260Z,19.50
2017-10-19T23:32:34.929Z,14.50
2017-10-19T23:34:38.364Z,14.83
2017-10-19T23:36:41.122Z,13.77
2017-10-19T23:38:43.761Z,14.57
2017-10-19T23:40:47.195Z,24.17
2017-10-19T23:42:49.874Z,22.50
2017-10-19T23:44:52.547Z,14.77
2017-10-19T23:46:55.227Z,14.00
2017-10-19T23:48:57.873Z,20.70
2017-10-19T23:51:01.305Z,12.63
2017-10-19T23:53:03.995Z,13.00
2017-10-19T23:55:06.729Z,20.50
2017-10-19T23:57:09.393Z,34.23
2017-10-19T23:59:12.843Z,25.00
